Time;durP1;ratioP1;P1;durP2;ratioP2;P2;SDS_P1;SDS_P2;PMS_P1;PMS_P2;Temp;Humidity;BMP_temperature;BMP_pressure;BME280_temperature;BME280_humidity;BME280_pressure;Samples;Min_cycle;Max_cycle;Signal;HPM_P1;HPM_P2
2022/09/02 00:00:51;;;;;;;1.67;0.90;;;17.50;1.00;;;;;;5093566;28;20757;-71
2022/09/02 00:03:19;;;;;;;1.00;0.80;;;17.50;55.70;;;;;;5094586;28;20840;-71
2022/09/02 00:05:47;;;;;;;0.90;0.70;;;17.40;1.00;;;;;;5093447;28;20485;-71
2022/09/02 00:08:14;;;;;;;1.57;0.90;;;17.30;3.40;;;;;;5095870;28;20471;-71
2022/09/02 00:10:43;;;;;;;1.20;0.70;;;17.20;1.00;;;;;;5093933;28;20457;-71
2022/09/02 00:13:13;;;;;;;0.90;0.70;;;17.20;93.40;;;;;;5094965;28;20516;-71
2022/09/02 00:15:41;;;;;;;0.97;0.70;;;17.20;99.90;;;;;;5094830;28;20510;-71
2022/09/02 00:18:11;;;;;;;1.10;0.80;;;17.30;99.90;;;;;;5095690;28;20474;-71
2022/09/02 00:20:40;;;;;;;0.93;0.70;;;17.30;99.90;;;;;;5093082;28;20457;-72
2022/09/02 00:23:08;;;;;;;1.17;0.80;;;17.30;1.00;;;;;;5094279;28;20503;-71
2022/09/02 00:25:35;;;;;;;1.10;0.80;;;17.30;1.00;;;;;;5092465;28;20489;-71
2022/09/02 00:28:02;;;;;;;1.17;0.87;;;17.50;1.00;;;;;;5095000;28;20441;-71
2022/09/02 00:30:29;;;;;;;2.90;0.80;;;17.50;1.00;;;;;;5098720;28;20462;-70
2022/09/02 00:32:56;;;;;;;2.03;0.80;;;17.30;1.00;;;;;;5098946;28;20517;-70
2022/09/02 00:35:23;;;;;;;1.30;0.80;;;17.40;1.00;;;;;;5098419;28;20457;-71
2022/09/02 00:37:52;;;;;;;0.70;0.60;;;17.40;1.00;;;;;;5099353;28;20441;-71
2022/09/02 00:40:19;;;;;;;0.97;0.77;;;17.40;1.00;;;;;;5097708;28;20543;-71
2022/09/02 00:42:46;;;;;;;0.90;0.70;;;17.40;1.00;;;;;;5099069;28;20938;-71
2022/09/02 00:45:14;;;;;;;0.90;0.70;;;17.30;1.00;;;;;;5097947;28;20489;-71
2022/09/02 00:47:41;;;;;;;1.73;0.80;;;17.30;1.00;;;;;;5098671;28;20454;-71
2022/09/02 00:50:11;;;;;;;2.20;0.83;;;17.20;1.00;;;;;;5097924;28;20457;-70
2022/09/02 00:52:42;;;;;;;1.00;0.70;;;17.20;46.20;;;;;;5098505;28;20521;-71
2022/09/02 00:55:14;;;;;;;1.33;0.90;;;17.10;99.90;;;;;;5097731;28;20522;-70
2022/09/02 00:57:46;;;;;;;1.10;0.80;;;17.10;99.90;;;;;;5098335;28;20803;-70
2022/09/02 01:00:16;;;;;;;1.30;0.80;;;17.20;99.90;;;;;;5097629;28;20479;-70
2022/09/02 01:02:46;;;;;;;1.07;0.90;;;17.20;1.00;;;;;;5098495;28;20438;-71
2022/09/02 01:05:16;;;;;;;1.17;1.00;;;17.00;1.00;;;;;;5096759;28;20504;-69
2022/09/02 01:07:43;;;;;;;1.07;0.80;;;17.00;99.90;;;;;;5098713;28;20466;-72
2022/09/02 01:10:16;;;;;;;2.33;1.00;;;17.10;99.00;;;;;;5097391;28;20498;-69
2022/09/02 01:12:43;;;;;;;2.87;1.10;;;17.10;87.90;;;;;;5098835;28;20513;-70
2022/09/02 01:15:12;;;;;;;2.43;1.77;;;17.30;75.70;;;;;;5095550;28;20453;-71
2022/09/02 01:17:42;;;;;;;2.47;1.07;;;17.20;1.00;;;;;;5098519;28;20536;-71
2022/09/02 01:20:13;;;;;;;1.23;0.90;;;17.10;1.00;;;;;;5096338;28;20477;-71
2022/09/02 01:22:42;;;;;;;1.90;1.33;;;17.00;99.90;;;;;;5098107;28;20915;-69
2022/09/02 01:25:13;;;;;;;1.90;0.97;;;16.90;99.90;;;;;;5096453;28;20514;-72
2022/09/02 01:27:41;;;;;;;1.20;1.00;;;16.90;99.90;;;;;;5098644;28;20445;-71
2022/09/02 01:30:16;;;;;;;1.50;1.10;;;16.90;1.00;;;;;;5097137;28;20503;-71
2022/09/02 01:32:45;;;;;;;1.70;1.10;;;17.00;99.90;;;;;;5097752;28;20932;-72
2022/09/02 01:35:14;;;;;;;1.90;1.00;;;17.00;99.90;;;;;;5096712;28;20736;-71
2022/09/02 01:37:42;;;;;;;1.57;0.90;;;16.90;99.90;;;;;;5097062;28;20506;-70
2022/09/02 01:40:11;;;;;;;1.20;0.93;;;17.00;99.90;;;;;;5093552;28;20453;-70
2022/09/02 01:42:40;;;;;;;1.00;0.90;;;16.90;1.00;;;;;;5097550;28;20445;-71
2022/09/02 01:45:09;;;;;;;0.90;0.80;;;16.90;1.00;;;;;;5095505;28;20488;-71
2022/09/02 01:47:36;;;;;;;1.20;0.90;;;16.80;1.00;;;;;;5097187;28;20472;-71
2022/09/02 01:50:04;;;;;;;2.40;1.00;;;16.90;1.00;;;;;;5095054;28;20771;-71
2022/09/02 01:52:32;;;;;;;1.23;0.90;;;17.00;1.00;;;;;;5096119;28;20481;-70
2022/09/02 01:55:00;;;;;;;1.57;1.00;;;17.00;99.90;;;;;;5095601;28;20453;-71
2022/09/02 01:57:27;;;;;;;1.07;0.80;;;17.00;99.90;;;;;;5097187;28;20739;-72
2022/09/02 01:59:54;;;;;;;1.53;0.90;;;16.90;99.90;;;;;;5095552;28;20499;-72
2022/09/02 02:02:22;;;;;;;1.10;0.90;;;16.90;99.90;;;;;;5097236;28;20472;-70
2022/09/02 02:04:49;;;;;;;1.00;0.80;;;16.90;99.90;;;;;;5097129;28;20464;-70
2022/09/02 02:07:18;;;;;;;2.00;0.80;;;16.90;99.90;;;;;;5097479;28;20473;-70
2022/09/02 02:09:45;;;;;;;1.70;0.80;;;16.90;99.90;;;;;;5096192;28;20601;-71
2022/09/02 02:12:14;;;;;;;1.33;0.80;;;16.80;99.90;;;;;;5079889;28;20662;-71
2022/09/02 02:14:41;;;;;;;1.10;0.90;;;16.80;99.90;;;;;;5095512;28;20488;-71
2022/09/02 02:17:08;;;;;;;1.00;0.87;;;16.70;99.90;;;;;;5097442;28;20546;-71
2022/09/02 02:19:35;;;;;;;1.00;0.80;;;16.60;1.00;;;;;;5095570;28;20493;-70
2022/09/02 02:22:03;;;;;;;1.27;0.80;;;16.60;1.00;;;;;;5097741;28;20918;-71
2022/09/02 02:24:31;;;;;;;1.03;0.80;;;16.50;1.00;;;;;;5096726;28;20594;-70
2022/09/02 02:26:57;;;;;;;1.00;0.80;;;16.40;1.00;;;;;;5096268;28;20454;-70
2022/09/02 02:29:26;;;;;;;1.07;0.90;;;16.40;99.90;;;;;;5095792;28;20484;-71
2022/09/02 02:31:53;;;;;;;1.70;0.90;;;16.40;1.00;;;;;;5095277;28;20519;-72
2022/09/02 02:34:20;;;;;;;1.20;0.70;;;16.30;99.90;;;;;;5096721;28;20530;-71
2022/09/02 02:36:47;;;;;;;1.00;0.87;;;16.40;10.20;;;;;;5095033;28;20489;-72
2022/09/02 02:39:14;;;;;;;1.00;0.90;;;16.30;1.00;;;;;;5096184;28;20503;-70
2022/09/02 02:41:41;;;;;;;1.00;0.80;;;16.40;1.00;;;;;;5093868;28;20489;-70
2022/09/02 02:44:09;;;;;;;1.77;0.70;;;16.30;1.00;;;;;;5095783;28;20450;-70
2022/09/02 02:46:37;;;;;;;1.07;0.70;;;16.40;1.00;;;;;;5094532;28;20544;-71
2022/09/02 02:49:06;;;;;;;2.60;0.90;;;16.40;99.90;;;;;;5095664;28;20471;-71
2022/09/02 02:51:33;;;;;;;1.20;0.70;;;16.40;1.00;;;;;;5093649;28;20449;-70
2022/09/02 02:54:01;;;;;;;1.10;0.80;;;16.40;99.90;;;;;;5097050;28;20520;-70
2022/09/02 02:56:29;;;;;;;1.17;0.70;;;16.30;99.90;;;;;;5094672;28;20453;-70
2022/09/02 02:58:58;;;;;;;1.10;0.80;;;16.40;99.90;;;;;;5096461;28;20990;-70
2022/09/02 03:01:26;;;;;;;1.10;0.70;;;16.40;99.90;;;;;;5093448;28;20531;-70
2022/09/02 03:03:54;;;;;;;1.00;0.77;;;16.40;99.90;;;;;;5096932;28;20784;-69
2022/09/02 03:06:21;;;;;;;1.00;0.70;;;16.50;99.90;;;;;;5095147;28;20546;-71
2022/09/02 03:08:48;;;;;;;1.17;0.73;;;16.40;99.90;;;;;;5095988;28;20889;-72
2022/09/02 03:11:15;;;;;;;6.10;0.80;;;16.30;99.90;;;;;;5095690;28;20454;-72
2022/09/02 03:13:42;;;;;;;0.90;0.80;;;16.30;99.90;;;;;;5096086;28;20521;-71
2022/09/02 03:16:09;;;;;;;0.70;0.67;;;16.20;99.90;;;;;;5094706;28;20460;-70
2022/09/02 03:18:36;;;;;;;1.00;0.70;;;16.20;99.90;;;;;;5095431;28;20441;-70
2022/09/02 03:21:09;;;;;;;1.10;0.80;;;16.30;99.90;;;;;;5095375;28;20619;-71
2022/09/02 03:23:36;;;;;;;1.00;0.70;;;16.30;1.00;;;;;;5094064;28;20454;-70
2022/09/02 03:26:09;;;;;;;0.70;0.60;;;16.30;99.90;;;;;;5095471;28;20455;-70
2022/09/02 03:28:35;;;;;;;1.20;0.70;;;16.20;99.90;;;;;;5093931;28;20457;-70
2022/09/02 03:31:03;;;;;;;0.80;0.70;;;16.10;99.90;;;;;;5095691;28;21012;-71
2022/09/02 03:33:29;;;;;;;0.80;0.70;;;16.10;99.90;;;;;;5093702;28;20974;-71
2022/09/02 03:35:57;;;;;;;0.87;0.70;;;16.00;99.90;;;;;;5096255;28;20501;-71
2022/09/02 03:38:25;;;;;;;0.90;0.70;;;16.10;1.00;;;;;;5093921;28;20449;-71
2022/09/02 03:40:52;;;;;;;1.10;0.70;;;16.10;1.00;;;;;;5096704;28;20481;-71
2022/09/02 03:43:19;;;;;;;0.80;0.60;;;16.20;99.90;;;;;;5095153;28;20582;-71
2022/09/02 03:45:46;;;;;;;1.43;0.70;;;16.10;1.00;;;;;;5096208;28;20449;-72
2022/09/02 03:48:14;;;;;;;0.70;0.57;;;16.10;99.90;;;;;;5094783;28;20461;-71
2022/09/02 03:50:43;;;;;;;1.10;0.70;;;16.10;1.00;;;;;;5094647;28;20499;-70
2022/09/02 03:53:11;;;;;;;0.90;0.70;;;16.20;99.90;;;;;;5092590;28;20766;-70
2022/09/02 03:55:40;;;;;;;0.70;0.60;;;16.10;99.90;;;;;;5093748;28;20485;-71
2022/09/02 03:58:07;;;;;;;1.47;0.70;;;16.10;1.00;;;;;;5092055;28;20966;-71
2022/09/02 04:00:34;;;;;;;0.93;0.70;;;16.10;99.90;;;;;;5093562;28;20696;-70
2022/09/02 04:03:02;;;;;;;1.00;0.70;;;16.00;99.90;;;;;;5094721;28;20453;-71
2022/09/02 04:05:29;;;;;;;1.00;0.70;;;16.00;99.90;;;;;;5098157;28;20795;-71
2022/09/02 04:07:57;;;;;;;1.10;0.80;;;15.90;1.00;;;;;;5096501;28;20798;-70
2022/09/02 04:10:24;;;;;;;0.90;0.70;;;15.90;1.00;;;;;;5099667;28;20485;-70
2022/09/02 04:12:53;;;;;;;0.80;0.80;;;15.80;1.00;;;;;;5097164;28;20484;-70
2022/09/02 04:15:20;;;;;;;1.00;0.77;;;15.70;1.00;;;;;;5098927;28;20449;-71
2022/09/02 04:17:47;;;;;;;0.70;0.60;;;15.60;99.90;;;;;;5098307;28;20434;-72
2022/09/02 04:20:16;;;;;;;1.00;0.80;;;15.60;99.90;;;;;;5099652;28;20947;-71
2022/09/02 04:22:43;;;;;;;1.10;0.70;;;15.60;99.90;;;;;;5096238;28;20892;-71
2022/09/02 04:25:11;;;;;;;1.20;0.80;;;15.60;1.00;;;;;;5098624;28;20510;-71
2022/09/02 04:27:38;;;;;;;2.53;0.80;;;15.70;44.10;;;;;;5097431;28;20476;-72
2022/09/02 04:30:08;;;;;;;1.23;0.70;;;15.80;1.00;;;;;;5098759;28;20774;-71
2022/09/02 04:32:36;;;;;;;1.00;0.80;;;15.90;1.00;;;;;;5097806;28;21009;-74
2022/09/02 04:35:03;;;;;;;0.97;0.70;;;15.80;1.00;;;;;;5098725;28;20485;-72
2022/09/02 04:37:32;;;;;;;1.30;0.70;;;15.90;1.00;;;;;;5099622;28;20941;-71
2022/09/02 04:39:59;;;;;;;4.50;0.70;;;15.90;1.00;;;;;;5096952;28;20511;-70
2022/09/02 04:42:26;;;;;;;3.30;0.70;;;15.80;1.00;;;;;;5098845;28;20473;-71
2022/09/02 04:44:55;;;;;;;1.90;0.73;;;15.90;1.00;;;;;;5096069;28;20662;-71
2022/09/02 04:47:23;;;;;;;2.27;0.70;;;15.90;1.00;;;;;;5098413;28;20445;-71
2022/09/02 04:49:51;;;;;;;0.90;0.70;;;16.10;1.00;;;;;;5096372;28;20458;-71
2022/09/02 04:52:19;;;;;;;0.90;0.60;;;16.10;99.90;;;;;;5097322;28;20484;-71
2022/09/02 04:54:46;;;;;;;0.80;0.80;;;16.00;99.90;;;;;;5096927;28;21011;-71
2022/09/02 04:57:14;;;;;;;1.00;0.70;;;15.90;99.90;;;;;;5098002;28;20449;-71
2022/09/02 04:59:41;;;;;;;0.80;0.57;;;15.90;99.90;;;;;;5098035;28;20889;-71
2022/09/02 05:02:08;;;;;;;1.30;0.80;;;16.00;99.90;;;;;;5098491;28;20534;-72
2022/09/02 05:04:37;;;;;;;0.83;0.60;;;16.00;99.90;;;;;;5095759;28;20449;-71
2022/09/02 05:07:04;;;;;;;0.90;0.70;;;15.90;99.90;;;;;;5096464;28;20841;-71
2022/09/02 05:09:32;;;;;;;1.10;0.80;;;15.80;99.90;;;;;;5094929;28;20478;-71
2022/09/02 05:12:03;;;;;;;1.03;0.70;;;15.80;1.00;;;;;;5096976;28;20907;-70
2022/09/02 05:14:30;;;;;;;2.60;0.77;;;15.80;1.00;;;;;;5093961;28;20485;-70
2022/09/02 05:16:59;;;;;;;1.87;0.80;;;15.80;1.00;;;;;;5096166;28;20445;-71
2022/09/02 05:19:26;;;;;;;1.10;0.90;;;15.80;1.00;;;;;;5095158;28;20560;-70
2022/09/02 05:21:57;;;;;;;0.80;0.70;;;15.80;1.00;;;;;;5098171;28;20544;-70
2022/09/02 05:24:24;;;;;;;0.70;0.60;;;15.90;1.00;;;;;;5095275;28;20497;-71
2022/09/02 05:26:51;;;;;;;1.20;0.80;;;16.00;1.00;;;;;;5097555;28;20485;-70
2022/09/02 05:29:19;;;;;;;1.00;0.80;;;16.10;1.00;;;;;;5095834;28;20545;-70
2022/09/02 05:31:46;;;;;;;0.90;0.70;;;16.10;1.00;;;;;;5097464;28;20460;-71
2022/09/02 05:34:13;;;;;;;1.50;0.90;;;16.10;99.90;;;;;;5094787;28;20485;-69
2022/09/02 05:36:40;;;;;;;1.70;0.80;;;16.10;99.90;;;;;;5098472;28;20711;-71
2022/09/02 05:39:09;;;;;;;1.03;0.70;;;16.10;99.90;;;;;;5094349;28;20962;-70
2022/09/02 05:41:36;;;;;;;1.00;0.70;;;16.30;99.90;;;;;;5096266;28;20532;-71
2022/09/02 05:44:05;;;;;;;1.00;0.80;;;16.30;99.90;;;;;;5096211;28;20782;-70
2022/09/02 05:46:33;;;;;;;1.27;0.77;;;16.40;46.60;;;;;;5095800;28;20468;-70
2022/09/02 05:49:07;;;;;;;0.90;0.70;;;16.50;1.00;;;;;;5094974;28;20558;-70
2022/09/02 05:51:40;;;;;;;1.30;0.90;;;16.50;1.00;;;;;;5096456;28;20808;-70
2022/09/02 05:54:10;;;;;;;1.47;0.90;;;16.50;1.00;;;;;;5095296;28;20774;-70
2022/09/02 05:56:39;;;;;;;1.20;0.80;;;16.40;1.00;;;;;;5094956;28;20496;-70
2022/09/02 05:59:07;;;;;;;1.60;1.00;;;16.30;1.00;;;;;;5092836;28;20913;-71
2022/09/02 06:01:34;;;;;;;2.90;0.80;;;16.30;99.90;;;;;;5093391;28;20452;-69
2022/09/02 06:04:02;;;;;;;1.30;0.90;;;16.40;1.00;;;;;;5094818;28;20506;-70
2022/09/02 06:06:29;;;;;;;4.23;2.00;;;16.40;1.00;;;;;;5105370;27;20492;-71
2022/09/02 06:08:56;;;;;;;4.43;3.17;;;16.30;1.00;;;;;;5129918;27;20448;-71
2022/09/02 06:11:25;;;;;;;1.83;1.17;;;16.30;1.00;;;;;;5111222;27;20442;-70
2022/09/02 06:13:54;;;;;;;0.90;0.70;;;16.30;1.00;;;;;;5108184;27;20516;-70
2022/09/02 06:16:22;;;;;;;1.00;0.73;;;16.20;1.00;;;;;;5119374;27;20763;-70
2022/09/02 06:18:50;;;;;;;4.13;1.20;;;16.30;1.00;;;;;;5123508;27;20456;-71
2022/09/02 06:21:19;;;;;;;1.10;0.90;;;16.30;1.00;;;;;;5102936;28;20454;-70
2022/09/02 06:23:47;;;;;;;1.77;0.90;;;16.30;1.00;;;;;;5114621;28;21074;-70
2022/09/02 06:26:17;;;;;;;0.90;0.70;;;16.20;1.00;;;;;;5098309;28;20782;-70
2022/09/02 06:28:46;;;;;;;1.63;0.80;;;16.30;1.00;;;;;;5102879;27;20521;-70
2022/09/02 06:31:14;;;;;;;1.20;0.83;;;16.30;1.00;;;;;;5095929;28;20879;-70
2022/09/02 06:33:42;;;;;;;0.90;0.70;;;16.10;1.00;;;;;;5097317;27;20516;-70
2022/09/02 06:36:11;;;;;;;1.50;0.80;;;16.30;1.00;;;;;;5099056;28;20522;-70
2022/09/02 06:38:40;;;;;;;1.10;0.90;;;16.40;1.00;;;;;;5108282;28;20459;-70
2022/09/02 06:41:07;;;;;;;1.57;0.80;;;16.40;1.00;;;;;;5113463;28;20452;-71
2022/09/02 06:43:34;;;;;;;1.10;0.80;;;16.40;1.00;;;;;;5112563;27;20513;-70
2022/09/02 06:46:03;;;;;;;1.20;0.70;;;16.40;1.00;;;;;;5119628;27;20513;-70
2022/09/02 06:48:30;;;;;;;1.40;0.80;;;16.50;1.00;;;;;;5115674;27;21173;-70
2022/09/02 06:50:57;;;;;;;1.30;0.90;;;16.60;1.00;;;;;;5115139;27;20453;-70
2022/09/02 06:53:24;;;;;;;0.97;0.70;;;16.70;1.00;;;;;;5109315;27;20559;-70
2022/09/02 06:55:51;;;;;;;1.10;0.80;;;16.90;1.00;;;;;;5100139;28;20946;-70
2022/09/02 06:58:18;;;;;;;1.27;0.97;;;17.10;99.90;;;;;;5078347;28;20446;-70
2022/09/02 07:00:46;;;;;;;1.10;1.00;;;17.20;99.90;;;;;;5092264;28;20539;-70
2022/09/02 07:06:01;;;;;;;6.57;5.87;;;17.10;99.90;;;;;;5108227;27;20464;-70
2022/09/02 07:08:28;;;;;;;1.60;1.30;;;17.10;99.90;;;;;;5125844;27;20450;-70
2022/09/02 07:10:55;;;;;;;0.90;0.70;;;17.10;99.90;;;;;;5132785;27;20455;-70
2022/09/02 07:13:22;;;;;;;1.33;1.00;;;17.10;99.90;;;;;;5135881;27;20534;-71
2022/09/02 07:15:49;;;;;;;1.10;0.70;;;17.30;99.90;;;;;;5122740;27;20584;-71
2022/09/02 07:18:17;;;;;;;0.80;0.70;;;17.50;99.90;;;;;;5110652;27;20962;-71
2022/09/02 07:20:46;;;;;;;0.90;0.70;;;17.60;99.90;;;;;;5107338;27;20445;-72
2022/09/02 07:23:14;;;;;;;1.33;0.80;;;17.60;99.90;;;;;;5098364;28;20744;-71
2022/09/02 07:25:41;;;;;;;1.20;0.70;;;17.60;99.90;;;;;;5108723;28;20437;-71
2022/09/02 07:28:09;;;;;;;0.80;0.60;;;17.70;99.90;;;;;;5099411;28;20454;-72
2022/09/02 07:30:38;;;;;;;2.80;0.70;;;17.80;99.90;;;;;;5115212;27;20472;-71
2022/09/02 07:33:05;;;;;;;1.10;0.80;;;17.90;95.80;;;;;;5132892;27;21108;-70
2022/09/02 07:35:35;;;;;;;1.10;0.80;;;18.10;94.70;;;;;;5135714;28;20479;-71
2022/09/02 07:38:03;;;;;;;1.00;0.60;;;18.10;41.40;;;;;;5140694;27;20882;-72
2022/09/02 07:40:30;;;;;;;1.67;0.67;;;18.10;12.80;;;;;;5112171;27;20495;-71
2022/09/02 07:42:57;;;;;;;1.00;0.60;;;18.10;20.50;;;;;;5100754;28;20464;-71
2022/09/02 07:45:24;;;;;;;0.70;0.60;;;18.30;1.00;;;;;;5100638;28;20550;-70
2022/09/02 07:47:52;;;;;;;0.80;0.60;;;18.40;1.00;;;;;;5109766;27;20452;-70
2022/09/02 07:50:19;;;;;;;0.80;0.60;;;18.40;1.00;;;;;;5122983;27;20448;-71
2022/09/02 07:52:49;;;;;;;1.90;0.60;;;18.40;1.00;;;;;;5104077;28;20449;-71
2022/09/02 07:55:16;;;;;;;0.70;0.60;;;18.40;1.00;;;;;;5100744;28;20469;-70
2022/09/02 07:57:43;;;;;;;0.90;0.67;;;18.50;1.00;;;;;;5098973;28;20477;-71
2022/09/02 08:00:12;;;;;;;1.33;0.50;;;18.50;1.00;;;;;;5139891;27;20474;-71
2022/09/02 08:02:39;;;;;;;1.07;0.67;;;18.60;1.00;;;;;;5126443;27;20476;-70
2022/09/02 08:05:06;;;;;;;1.27;0.60;;;18.70;1.00;;;;;;5114978;28;20949;-70
2022/09/02 08:07:34;;;;;;;26.43;21.90;;;18.70;1.00;;;;;;5099915;28;20552;-71
2022/09/02 08:10:02;;;;;;;42.30;21.13;;;18.80;1.00;;;;;;5102082;28;20433;-71
2022/09/02 08:12:29;;;;;;;6.63;4.93;;;18.90;1.00;;;;;;5101926;28;20453;-72
2022/09/02 08:14:57;;;;;;;0.87;0.60;;;19.00;1.00;;;;;;5129758;27;20471;-72
2022/09/02 08:17:24;;;;;;;1.00;0.50;;;19.10;1.00;;;;;;5111841;27;20457;-71
2022/09/02 08:19:51;;;;;;;0.60;0.57;;;19.30;1.00;;;;;;5105952;28;20491;-72
2022/09/02 08:22:18;;;;;;;3.03;0.50;;;19.40;1.00;;;;;;5111447;27;20438;-70
2022/09/02 08:24:45;;;;;;;0.60;0.50;;;19.40;1.00;;;;;;5115689;27;20452;-70
2022/09/02 08:27:13;;;;;;;0.77;0.53;;;19.50;1.00;;;;;;5116295;28;20493;-71
2022/09/02 08:29:41;;;;;;;0.93;0.60;;;19.60;1.00;;;;;;5118838;28;20502;-71
2022/09/02 08:32:08;;;;;;;0.73;0.50;;;19.70;1.00;;;;;;5119967;28;21113;-70
2022/09/02 08:34:35;;;;;;;0.70;0.60;;;19.70;1.00;;;;;;5117062;28;20480;-70
2022/09/02 08:37:02;;;;;;;1.10;0.60;;;19.80;1.00;;;;;;5110915;28;20514;-71
2022/09/02 08:39:29;;;;;;;0.70;0.50;;;19.90;1.00;;;;;;5100945;28;20448;-71
2022/09/02 08:42:07;;;;;;;0.73;0.50;;;19.90;1.00;;;;;;5109746;28;20441;-71
2022/09/02 08:44:38;;;;;;;8.63;0.60;;;19.90;1.00;;;;;;5099109;28;20553;-72
2022/09/02 08:47:09;;;;;;;0.60;0.50;;;19.90;1.00;;;;;;5101631;28;20445;-72
2022/09/02 08:49:40;;;;;;;0.80;0.50;;;19.90;1.00;;;;;;5097687;28;20493;-71
2022/09/02 08:52:10;;;;;;;0.50;0.43;;;19.80;1.00;;;;;;5111022;28;20446;-71
2022/09/02 08:54:44;;;;;;;0.70;0.50;;;19.90;1.00;;;;;;5094190;28;21196;-71
2022/09/02 08:57:11;;;;;;;0.70;0.50;;;19.80;1.00;;;;;;5108549;28;20445;-71
2022/09/02 08:59:44;;;;;;;0.80;0.50;;;19.90;1.00;;;;;;5096726;28;20449;-71
2022/09/02 09:02:21;;;;;;;0.70;0.60;;;20.00;1.00;;;;;;5097655;28;20449;-71
2022/09/02 09:05:05;;;;;;;0.70;0.60;;;20.10;1.00;;;;;;5108938;28;20450;-71
2022/09/02 09:07:37;;;;;;;0.80;0.70;;;20.30;1.00;;;;;;5087157;28;20754;-71
2022/09/02 09:10:13;;;;;;;1.37;0.57;;;20.40;1.00;;;;;;5075109;28;20553;-71
2022/09/02 09:13:12;;;;;;;0.60;0.40;;;20.50;1.00;;;;;;5083345;28;20453;-70
2022/09/02 09:15:49;;;;;;;0.80;0.50;;;20.60;1.00;;;;;;5061723;28;20518;-71
2022/09/02 09:18:19;;;;;;;0.70;0.60;;;20.70;1.00;;;;;;5075742;28;20877;-71
2022/09/02 09:20:47;;;;;;;0.80;0.60;;;20.60;1.00;;;;;;5074186;28;20528;-71
2022/09/02 09:23:28;;;;;;;0.90;0.63;;;20.60;1.00;;;;;;5078870;28;20442;-72
2022/09/02 09:26:05;;;;;;;2.23;1.93;;;20.70;1.00;;;;;;5078560;28;20451;-70
2022/09/02 09:28:32;;;;;;;1.23;0.80;;;20.70;1.00;;;;;;5076242;28;20452;-71
2022/09/02 09:31:01;;;;;;;0.97;0.40;;;20.90;1.00;;;;;;5087104;28;20542;-71
2022/09/02 09:33:28;;;;;;;0.53;0.50;;;20.80;1.00;;;;;;5096736;28;20450;-70
2022/09/02 09:35:57;;;;;;;1.10;0.50;;;20.90;1.00;;;;;;5095538;28;20493;-71
2022/09/02 09:38:35;;;;;;;0.90;0.40;;;21.20;1.00;;;;;;5096615;28;20450;-71
2022/09/02 09:41:15;;;;;;;0.60;0.50;;;21.10;1.00;;;;;;5096806;28;20489;-72
2022/09/02 09:43:42;;;;;;;0.60;0.40;;;21.00;1.00;;;;;;5097368;28;20500;-71
2022/09/02 09:46:27;;;;;;;0.53;0.40;;;21.00;1.00;;;;;;5097110;28;20485;-71
2022/09/02 09:48:54;;;;;;;0.50;0.40;;;21.10;1.00;;;;;;5096380;28;20557;-72
2022/09/02 09:51:21;;;;;;;0.50;0.40;;;21.20;1.00;;;;;;5092786;28;20526;-71
2022/09/02 09:53:49;;;;;;;0.60;0.40;;;21.40;1.00;;;;;;5095211;28;20445;-70
2022/09/02 09:56:31;;;;;;;0.80;0.67;;;21.70;1.00;;;;;;5094755;28;21396;-71
2022/09/02 09:58:58;;;;;;;0.60;0.40;;;22.00;1.00;;;;;;5093585;28;20472;-71
2022/09/02 10:01:29;;;;;;;0.67;0.40;;;22.10;1.00;;;;;;5093556;28;20460;-70
2022/09/02 10:03:59;;;;;;;0.50;0.40;;;22.40;1.00;;;;;;5094965;28;20446;-70
2022/09/02 10:06:40;;;;;;;0.60;0.40;;;22.40;1.00;;;;;;5107251;28;20526;-70
2022/09/02 10:09:31;;;;;;;0.57;0.40;;;22.60;1.00;;;;;;5115318;28;20448;-70
2022/09/02 10:12:00;;;;;;;2.10;0.40;;;22.90;1.00;;;;;;5111594;28;21185;-71
2022/09/02 10:14:33;;;;;;;0.53;0.30;;;22.90;1.00;;;;;;5095623;28;20442;-71
2022/09/02 10:17:15;;;;;;;0.50;0.50;;;23.00;1.00;;;;;;5109665;28;21004;-69
2022/09/02 10:19:52;;;;;;;0.90;0.50;;;23.10;1.00;;;;;;5102850;28;20505;-70
2022/09/02 10:22:55;;;;;;;0.70;0.50;;;23.20;1.00;;;;;;5105113;28;21121;-70
2022/09/02 10:25:29;;;;;;;2.57;2.37;;;23.50;1.00;;;;;;5095946;28;20438;-69
2022/09/02 10:28:06;;;;;;;0.60;0.50;;;23.40;1.00;;;;;;5093205;28;20452;-69
2022/09/02 10:30:41;;;;;;;0.90;0.50;;;23.60;1.00;;;;;;5094802;28;20445;-69
2022/09/02 10:33:24;;;;;;;0.73;0.43;;;24.00;1.00;;;;;;5094557;28;20453;-69
2022/09/02 10:35:59;;;;;;;0.57;0.40;;;24.30;1.00;;;;;;5095456;28;20940;-70
2022/09/02 10:38:37;;;;;;;0.50;0.30;;;24.60;1.00;;;;;;5097599;28;20900;-73
2022/09/02 10:41:30;;;;;;;1.03;0.40;;;24.40;1.00;;;;;;5096525;28;20961;-71
2022/09/02 10:44:23;;;;;;;0.67;0.40;;;24.60;1.00;;;;;;5095964;28;20458;-69
2022/09/02 10:46:59;;;;;;;0.50;0.40;;;25.00;1.00;;;;;;5094058;28;20445;-70
2022/09/02 10:49:46;;;;;;;0.67;0.50;;;25.00;1.00;;;;;;5093449;28;20924;-69
2022/09/02 10:52:34;;;;;;;0.60;0.40;;;25.10;1.00;;;;;;5093630;28;20905;-69
2022/09/02 10:55:13;;;;;;;0.60;0.50;;;25.20;1.00;;;;;;5094707;28;20572;-72
2022/09/02 10:57:48;;;;;;;0.80;0.40;;;25.00;1.00;;;;;;5091939;28;20468;-72
2022/09/02 11:00:18;;;;;;;0.53;0.30;;;25.10;1.00;;;;;;5132672;27;20504;-73
2022/09/02 11:02:51;;;;;;;0.73;0.50;;;25.30;1.00;;;;;;5131231;27;20522;-72
2022/09/02 11:05:23;;;;;;;0.67;0.40;;;25.20;1.00;;;;;;5134408;27;20468;-71
2022/09/02 11:07:55;;;;;;;1.00;0.47;;;25.10;1.00;;;;;;5135634;27;20720;-71
2022/09/02 11:10:26;;;;;;;0.50;0.40;;;25.10;1.00;;;;;;5134134;27;20503;-71
2022/09/02 11:13:00;;;;;;;0.40;0.30;;;25.00;1.00;;;;;;5134138;27;20444;-71
2022/09/02 11:15:44;;;;;;;0.50;0.33;;;25.10;1.00;;;;;;5133693;27;20511;-71
2022/09/02 11:18:18;;;;;;;0.77;0.40;;;25.00;1.00;;;;;;5132395;27;20847;-71
2022/09/02 11:20:53;;;;;;;0.50;0.40;;;25.30;1.00;;;;;;5135118;27;20832;-71
2022/09/02 11:23:29;;;;;;;0.50;0.40;;;25.40;1.00;;;;;;5132372;27;20492;-71
2022/09/02 11:26:05;;;;;;;0.50;0.30;;;25.50;1.00;;;;;;5134012;27;20714;-72
2022/09/02 11:28:42;;;;;;;0.70;0.40;;;25.50;1.00;;;;;;5133516;27;20455;-72
2022/09/02 11:31:15;;;;;;;0.60;0.30;;;25.40;1.00;;;;;;5135733;27;20905;-72
2022/09/02 11:33:51;;;;;;;0.53;0.33;;;25.50;1.00;;;;;;5133530;27;20448;-72
2022/09/02 11:36:19;;;;;;;0.57;0.40;;;25.60;1.00;;;;;;5134999;28;20539;-72
2022/09/02 11:38:51;;;;;;;0.50;0.40;;;25.60;1.00;;;;;;5131184;28;20550;-73
2022/09/02 11:41:28;;;;;;;0.67;0.37;;;25.40;1.00;;;;;;5134429;28;20522;-73
2022/09/02 11:44:01;;;;;;;0.70;0.40;;;25.40;1.00;;;;;;5132362;28;20558;-70
2022/09/02 11:47:07;;;;;;;0.50;0.40;;;25.40;1.00;;;;;;5135928;28;20839;-72
2022/09/02 11:49:56;;;;;;;0.50;0.40;;;25.60;1.00;;;;;;5133125;28;20518;-72
2022/09/02 11:52:39;;;;;;;0.63;0.50;;;24.90;1.00;;;;;;5136319;28;20539;-73
2022/09/02 11:55:11;;;;;;;0.50;0.40;;;25.40;1.00;;;;;;5100459;28;20461;-71
2022/09/02 11:57:40;;;;;;;0.80;0.40;;;25.40;1.00;;;;;;5108408;28;20510;-72
2022/09/02 12:00:28;;;;;;;1.00;0.40;;;25.50;1.00;;;;;;5104534;28;20545;-73
2022/09/02 12:03:02;;;;;;;2.40;0.40;;;25.60;1.00;;;;;;5107733;28;20498;-75
2022/09/02 12:05:48;;;;;;;0.50;0.40;;;25.50;1.00;;;;;;5096548;28;20482;-73
2022/09/02 12:08:49;;;;;;;0.67;0.47;;;25.70;1.00;;;;;;5109574;28;20763;-74
2022/09/02 12:11:49;;;;;;;1.20;0.90;;;25.90;1.00;;;;;;5094465;28;20490;-73
2022/09/02 12:14:56;;;;;;;0.70;0.50;;;25.70;1.00;;;;;;5108455;28;20441;-73
2022/09/02 12:17:39;;;;;;;0.70;0.40;;;26.00;1.00;;;;;;5092656;28;20552;-73
2022/09/02 12:20:11;;;;;;;0.50;0.40;;;26.00;1.00;;;;;;5093836;28;20457;-73
2022/09/02 12:22:50;;;;;;;0.83;0.40;;;26.30;1.00;;;;;;5077813;28;20499;-73
2022/09/02 12:25:47;;;;;;;0.50;0.30;;;26.40;1.00;;;;;;5100867;28;20452;-74
2022/09/02 12:28:24;;;;;;;0.50;0.30;;;26.20;1.00;;;;;;5102847;28;20457;-73
2022/09/02 12:31:14;;;;;;;0.50;0.30;;;26.20;1.00;;;;;;5081312;28;20471;-74
2022/09/02 12:33:44;;;;;;;0.50;0.30;;;26.30;1.00;;;;;;5104026;28;20433;-72
2022/09/02 12:37:01;;;;;;;0.47;0.40;;;26.20;1.00;;;;;;5110211;28;20515;-75
2022/09/02 12:39:57;;;;;;;0.60;0.40;;;26.30;1.00;;;;;;5117623;28;20453;-74
2022/09/02 12:42:33;;;;;;;0.60;0.40;;;26.50;1.00;;;;;;5115354;28;20454;-72
2022/09/02 12:45:11;;;;;;;0.50;0.40;;;25.80;1.00;;;;;;5100171;28;20834;-73
2022/09/02 12:47:51;;;;;;;1.53;0.40;;;26.10;1.00;;;;;;5118380;28;20483;-74
2022/09/02 12:50:25;;;;;;;0.40;0.40;;;26.20;1.00;;;;;;5112706;28;20819;-73
2022/09/02 12:53:11;;;;;;;1.10;0.40;;;26.20;1.00;;;;;;5099219;28;21086;-73
2022/09/02 12:55:49;;;;;;;1.40;0.37;;;26.00;1.00;;;;;;5107208;28;20484;-74
2022/09/02 12:58:22;;;;;;;0.50;0.40;;;26.40;1.00;;;;;;5115998;28;20459;-73
2022/09/02 13:01:00;;;;;;;0.53;0.43;;;26.40;1.00;;;;;;5114591;27;20465;-73
2022/09/02 13:03:49;;;;;;;0.70;0.40;;;26.30;1.00;;;;;;5113878;28;20448;-73
2022/09/02 13:06:24;;;;;;;2.57;0.57;;;26.40;1.00;;;;;;5094127;28;20568;-73
2022/09/02 13:09:18;;;;;;;0.63;0.40;;;26.30;1.00;;;;;;5095502;28;21076;-74
2022/09/02 13:12:23;;;;;;;0.50;0.40;;;26.40;1.00;;;;;;5095819;28;20526;-74
2022/09/02 13:15:02;;;;;;;0.50;0.37;;;26.10;1.00;;;;;;5096294;28;20815;-72
2022/09/02 13:18:01;;;;;;;1.87;0.60;;;25.90;1.00;;;;;;5097608;28;20481;-73